Time;durP1;ratioP1;P1;durP2;ratioP2;P2;SDS_P1;SDS_P2;PMS_P1;PMS_P2;Temp;Humidity;BMP_temperature;BMP_pressure;BME280_temperature;BME280_humidity;BME280_pressure;Samples;Min_cycle;Max_cycle;Signal;HPM_P1;HPM_P2
2022/10/29 00:01:39;;;;;;;5.77;3.90;;;16.50;99.90;;;;;;5112291;28;20541;-72
2022/10/29 00:04:05;;;;;;;4.67;3.97;;;16.50;99.90;;;;;;5112541;28;20406;-72
2022/10/29 00:06:31;;;;;;;5.53;3.70;;;16.50;99.90;;;;;;5111011;28;20165;-72
2022/10/29 00:08:56;;;;;;;7.27;3.80;;;16.50;99.90;;;;;;5113056;28;20542;-72
2022/10/29 00:11:22;;;;;;;7.93;4.50;;;16.60;99.90;;;;;;5111971;28;20201;-72
2022/10/29 00:13:53;;;;;;;11.63;3.70;;;16.60;99.90;;;;;;5112229;28;20239;-71
2022/10/29 00:16:21;;;;;;;9.90;4.67;;;16.60;99.90;;;;;;5112565;28;20169;-72
2022/10/29 00:18:47;;;;;;;6.13;3.70;;;16.50;99.90;;;;;;5113195;28;20422;-71
2022/10/29 00:21:15;;;;;;;7.00;4.80;;;16.60;99.90;;;;;;5111894;28;20434;-71
2022/10/29 00:23:41;;;;;;;7.27;3.90;;;16.60;99.90;;;;;;5113108;28;20195;-72
2022/10/29 00:26:07;;;;;;;7.90;4.13;;;16.60;99.90;;;;;;5113281;28;20406;-71
2022/10/29 00:28:33;;;;;;;10.67;4.30;;;16.60;99.90;;;;;;5115326;28;20413;-71
2022/10/29 00:31:07;;;;;;;11.53;4.87;;;16.60;99.90;;;;;;5113285;28;20398;-71
2022/10/29 00:33:33;;;;;;;10.43;4.20;;;16.60;99.90;;;;;;5112557;28;20422;-71
2022/10/29 00:36:23;;;;;;;7.57;4.80;;;16.60;99.90;;;;;;5113141;28;20417;-72
2022/10/29 00:38:48;;;;;;;15.63;5.60;;;16.60;99.90;;;;;;5113308;28;20200;-71
2022/10/29 00:41:19;;;;;;;6.00;4.20;;;16.50;99.90;;;;;;5113478;28;20403;-71
2022/10/29 00:44:14;;;;;;;6.70;4.30;;;16.50;99.90;;;;;;5113736;28;20175;-72
2022/10/29 00:46:42;;;;;;;4.63;3.80;;;16.60;99.90;;;;;;5114623;28;20425;-72
2022/10/29 00:49:08;;;;;;;7.10;4.10;;;16.50;99.90;;;;;;5111214;28;20422;-71
2022/10/29 00:51:34;;;;;;;6.70;4.00;;;16.60;99.90;;;;;;5112019;28;20399;-71
2022/10/29 00:54:05;;;;;;;12.10;3.93;;;16.60;99.90;;;;;;5112043;28;20410;-72
2022/10/29 00:56:35;;;;;;;7.93;3.90;;;16.60;99.90;;;;;;5112016;28;20411;-73
2022/10/29 00:59:01;;;;;;;7.23;4.40;;;16.50;99.90;;;;;;5112550;28;20728;-72
2022/10/29 01:01:27;;;;;;;9.30;4.13;;;16.40;99.90;;;;;;5112923;28;20390;-73
2022/10/29 01:03:54;;;;;;;11.17;4.30;;;16.40;99.90;;;;;;5113226;28;20407;-72
2022/10/29 01:06:20;;;;;;;6.03;4.90;;;16.30;99.90;;;;;;5111767;28;20510;-72
2022/10/29 01:08:46;;;;;;;12.20;4.80;;;16.30;99.90;;;;;;5111875;28;20429;-72
2022/10/29 01:11:29;;;;;;;9.27;4.77;;;16.10;99.90;;;;;;5111871;28;20441;-71
2022/10/29 01:14:21;;;;;;;10.37;5.03;;;16.10;99.90;;;;;;5112763;28;20230;-72
2022/10/29 01:17:09;;;;;;;7.70;4.53;;;16.10;99.90;;;;;;5111678;28;20486;-72
2022/10/29 01:20:10;;;;;;;8.47;3.40;;;16.00;99.90;;;;;;5111860;28;20415;-72
2022/10/29 01:22:57;;;;;;;11.27;4.40;;;16.00;99.90;;;;;;5112778;28;20439;-71
2022/10/29 01:25:53;;;;;;;12.10;5.33;;;16.00;99.90;;;;;;5113985;28;20429;-71
2022/10/29 01:28:51;;;;;;;4.80;3.97;;;15.90;99.90;;;;;;5114049;28;20517;-71
2022/10/29 01:31:48;;;;;;;5.40;3.67;;;15.90;99.90;;;;;;5118188;28;20963;-72
2022/10/29 01:34:45;;;;;;;7.70;4.27;;;16.00;99.90;;;;;;5117471;28;20422;-72
2022/10/29 01:37:30;;;;;;;6.00;3.73;;;16.00;99.90;;;;;;5116241;28;20534;-71
2022/10/29 01:40:08;;;;;;;9.87;4.60;;;16.00;99.90;;;;;;5116305;28;20864;-72
2022/10/29 01:42:37;;;;;;;10.60;5.23;;;16.00;99.90;;;;;;5114977;28;20899;-72
2022/10/29 01:45:47;;;;;;;5.50;3.23;;;16.00;99.90;;;;;;5115594;28;20481;-71
2022/10/29 01:48:18;;;;;;;4.50;3.43;;;16.10;99.90;;;;;;5012361;28;20835;-72
2022/10/29 01:50:48;;;;;;;9.73;4.60;;;16.10;99.90;;;;;;5013108;28;20478;-72
2022/10/29 01:53:13;;;;;;;5.40;3.87;;;16.00;99.90;;;;;;5059082;28;20411;-72
2022/10/29 01:55:39;;;;;;;3.90;3.23;;;16.00;99.90;;;;;;5095548;28;20768;-72
2022/10/29 01:58:06;;;;;;;5.73;3.50;;;16.00;99.90;;;;;;5095708;28;20189;-72
2022/10/29 02:01:05;;;;;;;4.60;3.00;;;16.00;99.90;;;;;;5117020;28;20684;-72
2022/10/29 02:03:47;;;;;;;5.07;4.40;;;16.00;99.90;;;;;;5103334;28;20426;-72
2022/10/29 02:06:34;;;;;;;5.57;3.47;;;16.00;99.90;;;;;;5114471;28;20421;-71
2022/10/29 02:09:26;;;;;;;5.27;3.10;;;16.10;99.90;;;;;;5114381;28;20422;-71
2022/10/29 02:12:16;;;;;;;12.73;4.50;;;16.00;99.90;;;;;;5114673;28;20911;-71
2022/10/29 02:15:05;;;;;;;6.53;2.80;;;16.00;99.90;;;;;;5114298;28;20391;-72
2022/10/29 02:17:32;;;;;;;12.37;4.20;;;15.90;99.90;;;;;;5102069;28;20454;-72
2022/10/29 02:19:57;;;;;;;5.40;3.50;;;15.90;99.90;;;;;;5114159;28;20473;-72
2022/10/29 02:22:23;;;;;;;7.03;3.67;;;15.80;99.90;;;;;;5114494;28;20442;-72
2022/10/29 02:24:49;;;;;;;8.10;4.20;;;15.80;99.90;;;;;;5114129;28;20226;-72
2022/10/29 02:27:14;;;;;;;3.90;3.23;;;15.80;99.90;;;;;;5114331;28;20448;-71
2022/10/29 02:29:40;;;;;;;9.00;4.10;;;15.80;99.90;;;;;;5115483;28;20535;-71
2022/10/29 02:32:05;;;;;;;6.40;3.17;;;15.80;99.90;;;;;;5115512;28;20172;-71
2022/10/29 02:34:31;;;;;;;8.17;4.30;;;15.70;99.90;;;;;;5113897;28;20165;-72
2022/10/29 02:36:56;;;;;;;7.77;3.47;;;15.70;99.90;;;;;;5113904;28;20189;-71
2022/10/29 02:39:22;;;;;;;5.53;3.83;;;15.70;99.90;;;;;;5114150;28;20199;-71
2022/10/29 02:41:47;;;;;;;9.20;4.00;;;15.70;99.90;;;;;;5114172;28;20164;-71
2022/10/29 02:44:13;;;;;;;9.50;4.00;;;15.70;99.90;;;;;;5113332;28;20522;-71
2022/10/29 02:46:39;;;;;;;9.33;4.20;;;15.70;99.90;;;;;;5113888;28;20164;-71
2022/10/29 02:49:05;;;;;;;15.37;4.23;;;15.50;99.90;;;;;;5113729;28;20181;-71
2022/10/29 02:51:31;;;;;;;7.47;3.43;;;15.40;99.90;;;;;;5114368;28;20165;-71
2022/10/29 02:53:57;;;;;;;5.23;3.23;;;15.40;99.90;;;;;;5114269;28;20879;-72
2022/10/29 02:56:22;;;;;;;6.70;4.30;;;15.30;99.90;;;;;;5113890;28;20179;-71
2022/10/29 02:58:48;;;;;;;9.83;4.10;;;15.20;99.90;;;;;;5114111;28;20565;-72
2022/10/29 03:01:13;;;;;;;12.63;4.27;;;15.20;99.90;;;;;;5113822;28;20187;-72
2022/10/29 03:03:39;;;;;;;13.60;4.20;;;15.10;99.90;;;;;;5113395;28;20657;-72
2022/10/29 03:06:11;;;;;;;7.70;4.07;;;15.10;99.90;;;;;;5115151;28;20176;-72
2022/10/29 03:08:37;;;;;;;6.13;3.87;;;15.00;99.90;;;;;;5115227;28;20189;-71
2022/10/29 03:11:02;;;;;;;8.00;3.73;;;15.00;99.90;;;;;;5116172;28;20839;-73
2022/10/29 03:13:28;;;;;;;7.23;3.30;;;14.90;99.90;;;;;;5113698;28;20641;-72
2022/10/29 03:15:54;;;;;;;7.13;3.73;;;14.90;99.90;;;;;;5113766;28;20244;-72
2022/10/29 03:18:19;;;;;;;5.63;3.80;;;14.80;99.90;;;;;;5113554;28;20195;-72
2022/10/29 03:20:46;;;;;;;7.80;3.47;;;14.80;99.90;;;;;;5113310;28;20157;-72
2022/10/29 03:23:12;;;;;;;4.07;3.13;;;14.70;99.90;;;;;;5115687;28;20180;-72
2022/10/29 03:25:38;;;;;;;12.63;4.00;;;14.70;99.90;;;;;;5114952;28;20410;-71
2022/10/29 03:28:03;;;;;;;11.20;4.33;;;14.70;99.90;;;;;;5113171;28;20402;-71
2022/10/29 03:30:29;;;;;;;8.70;3.90;;;14.70;99.90;;;;;;5113739;28;20250;-72
2022/10/29 03:32:54;;;;;;;3.50;3.00;;;14.60;99.90;;;;;;5113829;28;20192;-71
2022/10/29 03:35:20;;;;;;;8.87;4.67;;;14.60;99.90;;;;;;5113681;28;20173;-72
2022/10/29 03:37:51;;;;;;;6.43;3.63;;;14.60;99.90;;;;;;5113891;28;20197;-72
2022/10/29 03:40:18;;;;;;;8.57;3.40;;;14.60;99.90;;;;;;5112307;28;20196;-71
2022/10/29 03:42:44;;;;;;;5.00;4.10;;;14.70;99.90;;;;;;5113483;28;20406;-72
2022/10/29 03:45:10;;;;;;;6.07;4.13;;;14.70;99.90;;;;;;5113515;28;20896;-71
2022/10/29 03:47:35;;;;;;;9.73;3.97;;;14.80;99.90;;;;;;5113194;28;20245;-72
2022/10/29 03:50:01;;;;;;;7.43;3.27;;;14.80;99.90;;;;;;5113907;28;20444;-72
2022/10/29 03:52:27;;;;;;;5.17;3.93;;;14.80;99.90;;;;;;5111672;28;20654;-72
2022/10/29 03:54:53;;;;;;;10.40;4.23;;;14.70;99.90;;;;;;5112442;27;20257;-71
2022/10/29 03:57:18;;;;;;;9.77;4.10;;;14.70;99.90;;;;;;5115065;28;20473;-73
2022/10/29 03:59:44;;;;;;;8.90;3.40;;;14.70;99.90;;;;;;5116099;28;20178;-72
2022/10/29 04:02:11;;;;;;;6.50;3.80;;;14.70;99.90;;;;;;5113454;28;20165;-71
2022/10/29 04:04:37;;;;;;;8.30;3.80;;;14.60;99.90;;;;;;5113220;28;20648;-71
2022/10/29 04:07:03;;;;;;;6.97;4.43;;;14.60;99.90;;;;;;5111261;28;20494;-71
2022/10/29 04:09:28;;;;;;;7.97;4.37;;;14.70;99.90;;;;;;5111383;28;20998;-72
2022/10/29 04:11:54;;;;;;;8.37;4.90;;;14.70;99.90;;;;;;5112468;28;20222;-71
2022/10/29 04:14:19;;;;;;;10.10;6.10;;;14.70;99.90;;;;;;5110922;28;20407;-71
2022/10/29 04:16:45;;;;;;;14.10;5.43;;;14.80;99.90;;;;;;5112178;28;20173;-71
2022/10/29 04:19:10;;;;;;;10.50;4.93;;;14.80;99.90;;;;;;5112577;28;20189;-72
2022/10/29 04:21:36;;;;;;;16.20;4.83;;;14.90;99.90;;;;;;5113329;28;20632;-72
2022/10/29 04:24:02;;;;;;;7.03;4.57;;;14.90;99.90;;;;;;5112454;28;20203;-72
2022/10/29 04:26:27;;;;;;;9.07;5.20;;;14.90;99.90;;;;;;5112082;28;20625;-72
2022/10/29 04:28:53;;;;;;;7.47;4.70;;;14.90;99.90;;;;;;5112345;28;20188;-72
2022/10/29 04:31:18;;;;;;;11.83;5.23;;;14.80;99.90;;;;;;5112073;28;20165;-72
2022/10/29 04:33:45;;;;;;;10.10;4.20;;;14.90;99.90;;;;;;5112620;28;20161;-72
2022/10/29 04:36:10;;;;;;;7.30;4.03;;;14.80;99.90;;;;;;5112732;28;20239;-71
2022/10/29 04:38:36;;;;;;;8.90;5.10;;;14.80;99.90;;;;;;5112759;28;20449;-72
2022/10/29 04:41:02;;;;;;;14.57;5.47;;;14.80;99.90;;;;;;5112839;28;20247;-72
2022/10/29 04:43:28;;;;;;;15.47;7.23;;;14.90;99.90;;;;;;5112092;28;20164;-72
2022/10/29 04:45:55;;;;;;;14.50;6.10;;;14.90;99.90;;;;;;5112829;28;20165;-73
2022/10/29 04:48:22;;;;;;;11.40;7.43;;;14.90;99.90;;;;;;5114880;28;20654;-72
2022/10/29 04:50:49;;;;;;;8.50;5.20;;;15.00;99.90;;;;;;5114261;28;20402;-72
2022/10/29 04:53:15;;;;;;;12.73;6.37;;;15.00;99.90;;;;;;5111989;28;20482;-72
2022/10/29 04:55:40;;;;;;;13.23;5.63;;;14.90;99.90;;;;;;5111606;28;20856;-71
2022/10/29 04:58:10;;;;;;;11.30;6.50;;;14.90;99.90;;;;;;5112047;28;20197;-71
2022/10/29 05:00:36;;;;;;;15.63;6.17;;;14.90;99.90;;;;;;5114858;28;20208;-71
2022/10/29 05:03:01;;;;;;;7.53;4.67;;;14.90;99.90;;;;;;5116020;27;20409;-72
2022/10/29 05:05:27;;;;;;;9.57;6.47;;;14.90;99.90;;;;;;5115450;28;20217;-71
2022/10/29 05:08:00;;;;;;;10.30;5.33;;;14.80;99.90;;;;;;5116007;28;20533;-72
2022/10/29 05:10:35;;;;;;;9.80;5.93;;;14.80;99.90;;;;;;5115340;28;20184;-72
2022/10/29 05:13:06;;;;;;;7.53;5.60;;;14.70;99.90;;;;;;5116802;28;20433;-72
2022/10/29 05:15:31;;;;;;;9.70;5.90;;;14.70;99.90;;;;;;5116315;28;20450;-71
2022/10/29 05:17:57;;;;;;;16.03;5.80;;;14.70;99.90;;;;;;5117592;28;20442;-71
2022/10/29 05:20:23;;;;;;;10.50;6.30;;;14.70;99.90;;;;;;5119506;28;20192;-72
2022/10/29 05:22:49;;;;;;;11.57;6.60;;;14.70;99.90;;;;;;5116578;28;20678;-71
2022/10/29 05:25:15;;;;;;;15.23;6.67;;;14.70;99.90;;;;;;5115118;28;20525;-71
2022/10/29 05:27:41;;;;;;;7.63;5.57;;;14.70;99.90;;;;;;5115660;28;20167;-72
2022/10/29 05:30:07;;;;;;;12.03;6.50;;;14.70;99.90;;;;;;5115624;28;20422;-71
2022/10/29 05:32:33;;;;;;;9.63;5.60;;;14.70;99.90;;;;;;5115598;28;20188;-71
2022/10/29 05:34:58;;;;;;;10.53;6.27;;;14.70;99.90;;;;;;5115149;28;20406;-72
2022/10/29 05:37:25;;;;;;;10.50;5.33;;;14.70;99.90;;;;;;5115211;28;20503;-71
2022/10/29 05:39:50;;;;;;;10.83;5.83;;;14.70;99.90;;;;;;5116446;28;20204;-72
2022/10/29 05:42:16;;;;;;;10.00;6.20;;;14.60;99.90;;;;;;5115383;28;20437;-71
2022/10/29 05:44:41;;;;;;;10.17;5.60;;;14.60;99.90;;;;;;5115907;28;20169;-72
2022/10/29 05:47:07;;;;;;;12.10;4.90;;;14.60;99.90;;;;;;5115690;28;20246;-72
2022/10/29 05:49:33;;;;;;;15.20;6.20;;;14.60;99.90;;;;;;5114771;28;20197;-71
2022/10/29 05:51:58;;;;;;;21.37;7.10;;;14.60;99.90;;;;;;5115352;28;20180;-72
2022/10/29 05:54:24;;;;;;;10.63;5.47;;;14.60;99.90;;;;;;5114631;28;20709;-71
2022/10/29 05:56:49;;;;;;;8.50;6.70;;;14.70;99.90;;;;;;5116617;28;20653;-72
2022/10/29 05:59:15;;;;;;;13.70;5.43;;;14.70;99.90;;;;;;5118720;28;20551;-73
2022/10/29 06:01:40;;;;;;;11.93;6.67;;;14.70;99.90;;;;;;5116292;28;20168;-72
2022/10/29 06:04:06;;;;;;;11.30;6.43;;;14.70;99.90;;;;;;5115156;28;20161;-72
2022/10/29 06:06:32;;;;;;;11.57;6.90;;;14.70;99.90;;;;;;5115108;28;20169;-71
2022/10/29 06:08:58;;;;;;;13.43;5.70;;;14.80;99.90;;;;;;5115199;28;20247;-72
2022/10/29 06:11:23;;;;;;;9.93;5.40;;;14.80;99.90;;;;;;5114110;28;20411;-71
2022/10/29 06:13:49;;;;;;;7.67;4.93;;;14.80;99.90;;;;;;5114407;28;20173;-71
2022/10/29 06:16:15;;;;;;;12.83;5.73;;;14.80;99.90;;;;;;5114362;28;20169;-71
2022/10/29 06:18:41;;;;;;;8.00;5.57;;;14.80;99.90;;;;;;5113867;28;20227;-71
2022/10/29 06:21:06;;;;;;;12.20;6.27;;;14.90;99.90;;;;;;5114795;28;20482;-71
2022/10/29 06:23:31;;;;;;;11.53;4.90;;;14.90;99.90;;;;;;5114021;28;20672;-72
2022/10/29 06:25:59;;;;;;;9.80;5.07;;;14.90;99.90;;;;;;5114150;28;20161;-72
2022/10/29 06:28:25;;;;;;;7.27;5.43;;;14.80;99.90;;;;;;5114581;28;20172;-70
2022/10/29 06:30:50;;;;;;;7.07;5.00;;;14.90;99.90;;;;;;5118237;28;20407;-72
2022/10/29 06:33:17;;;;;;;12.17;5.80;;;14.80;99.90;;;;;;5117464;28;20222;-72
2022/10/29 06:35:44;;;;;;;9.90;5.20;;;14.80;99.90;;;;;;5113797;28;20260;-72
2022/10/29 06:38:09;;;;;;;12.80;5.00;;;14.80;99.90;;;;;;5114065;28;20450;-71
2022/10/29 06:40:35;;;;;;;12.90;5.33;;;14.80;99.90;;;;;;5114043;28;20786;-72
2022/10/29 06:43:02;;;;;;;10.00;6.10;;;14.80;99.90;;;;;;5114545;28;20518;-71
2022/10/29 06:45:29;;;;;;;11.23;5.00;;;14.70;99.90;;;;;;5114648;28;20161;-70
2022/10/29 06:47:55;;;;;;;13.67;5.80;;;14.70;99.90;;;;;;5113831;28;20471;-71
2022/10/29 06:50:21;;;;;;;8.33;4.60;;;14.60;99.90;;;;;;5113857;28;20443;-71
2022/10/29 06:52:57;;;;;;;8.20;4.73;;;14.70;99.90;;;;;;5114853;28;20176;-71
2022/10/29 06:55:23;;;;;;;16.97;6.70;;;14.70;99.90;;;;;;5114297;28;20732;-71
2022/10/29 06:58:02;;;;;;;12.10;6.23;;;14.70;99.90;;;;;;5114225;28;20449;-71
2022/10/29 07:00:29;;;;;;;10.97;5.77;;;14.80;99.90;;;;;;5114052;28;20185;-71
2022/10/29 07:02:55;;;;;;;7.80;5.30;;;14.70;99.90;;;;;;5113571;27;20494;-71
2022/10/29 07:05:22;;;;;;;15.40;5.73;;;14.80;99.90;;;;;;5113410;28;20407;-71
2022/10/29 07:07:47;;;;;;;15.37;7.40;;;14.80;99.90;;;;;;5113975;27;20411;-71
2022/10/29 07:10:13;;;;;;;11.23;6.07;;;14.90;99.90;;;;;;5114018;28;20492;-71
2022/10/29 07:12:42;;;;;;;11.47;5.60;;;14.90;99.90;;;;;;5113834;28;20173;-72
2022/10/29 07:15:09;;;;;;;14.13;6.20;;;14.90;99.90;;;;;;5115867;28;20176;-73
2022/10/29 07:17:35;;;;;;;9.20;5.87;;;15.00;99.90;;;;;;5116957;28;20454;-73
2022/10/29 07:20:00;;;;;;;11.40;5.03;;;15.00;99.90;;;;;;5113012;28;20434;-72
2022/10/29 07:22:26;;;;;;;11.63;5.70;;;15.10;99.90;;;;;;5112629;28;20182;-71
2022/10/29 07:24:52;;;;;;;16.07;5.33;;;15.20;99.90;;;;;;5111650;28;20269;-71
2022/10/29 07:27:17;;;;;;;8.47;5.33;;;15.20;99.90;;;;;;5113180;28;20214;-71
2022/10/29 07:29:43;;;;;;;11.20;7.33;;;15.30;99.90;;;;;;5113113;28;20249;-71
2022/10/29 07:32:08;;;;;;;12.37;5.43;;;15.40;99.90;;;;;;5113027;28;20596;-71
2022/10/29 07:34:34;;;;;;;8.70;5.47;;;15.50;99.90;;;;;;5112854;28;20165;-71
2022/10/29 07:36:59;;;;;;;11.70;6.07;;;15.60;99.90;;;;;;5112961;28;20246;-71
2022/10/29 07:39:25;;;;;;;10.27;6.40;;;15.80;99.90;;;;;;5112936;28;20181;-72
2022/10/29 07:41:50;;;;;;;15.90;6.43;;;15.90;99.90;;;;;;5113069;28;20173;-71
2022/10/29 07:44:15;;;;;;;16.00;5.40;;;16.10;99.90;;;;;;5113408;28;20530;-72
2022/10/29 07:46:41;;;;;;;7.43;4.53;;;16.30;99.90;;;;;;5113658;28;20219;-71
2022/10/29 07:49:06;;;;;;;17.60;6.00;;;16.30;99.90;;;;;;5113482;28;20189;-71
2022/10/29 07:51:32;;;;;;;9.40;5.57;;;16.40;99.90;;;;;;5112607;28;20176;-71
2022/10/29 07:53:57;;;;;;;10.77;4.20;;;16.50;99.90;;;;;;5111711;28;20642;-71
2022/10/29 07:56:23;;;;;;;7.30;4.67;;;16.50;99.90;;;;;;5112532;28;20169;-72
2022/10/29 07:58:48;;;;;;;11.67;5.13;;;16.50;99.90;;;;;;5113300;28;20209;-71
2022/10/29 08:01:14;;;;;;;11.10;5.37;;;16.60;99.90;;;;;;5112956;28;20169;-71
2022/10/29 08:03:40;;;;;;;9.83;5.83;;;16.60;99.90;;;;;;5112568;28;20169;-71
2022/10/29 08:06:05;;;;;;;10.13;5.33;;;16.60;99.90;;;;;;5112306;28;20182;-72
2022/10/29 08:08:33;;;;;;;11.53;5.67;;;16.60;99.90;;;;;;5112284;28;20173;-72
2022/10/29 08:11:03;;;;;;;9.90;5.60;;;16.60;99.90;;;;;;5112086;28;20165;-72
2022/10/29 08:13:29;;;;;;;12.40;6.83;;;16.60;99.90;;;;;;5112481;28;20891;-72
2022/10/29 08:15:55;;;;;;;12.27;6.57;;;16.70;99.90;;;;;;5112271;28;20403;-71
2022/10/29 08:18:21;;;;;;;6.07;4.77;;;16.70;99.90;;;;;;5112345;28;20541;-71
2022/10/29 08:20:47;;;;;;;11.47;5.77;;;16.70;99.90;;;;;;5112599;28;20422;-71
2022/10/29 08:23:13;;;;;;;10.93;5.57;;;16.80;99.90;;;;;;5112788;28;20929;-72
2022/10/29 08:25:42;;;;;;;10.90;5.60;;;16.80;99.90;;;;;;5112638;28;20262;-72
2022/10/29 08:28:11;;;;;;;6.20;4.00;;;16.80;99.90;;;;;;5113017;28;20403;-71
2022/10/29 08:30:37;;;;;;;10.60;4.90;;;16.70;99.90;;;;;;5114196;28;20442;-72
2022/10/29 08:33:03;;;;;;;11.67;5.47;;;16.80;99.90;;;;;;5116637;28;20911;-72
2022/10/29 08:35:29;;;;;;;11.77;5.17;;;16.80;99.90;;;;;;5118025;28;20406;-73
2022/10/29 08:37:55;;;;;;;9.77;5.00;;;16.90;99.90;;;;;;5118226;28;20192;-72
2022/10/29 08:41:02;;;;;;;18.43;5.37;;;17.00;99.90;;;;;;5116428;28;20410;-72
2022/10/29 08:44:13;;;;;;;14.90;5.03;;;17.00;99.90;;;;;;5089500;28;20402;-72
2022/10/29 08:46:58;;;;;;;8.00;4.73;;;17.00;99.90;;;;;;5120834;28;20406;-73
2022/10/29 08:49:36;;;;;;;6.63;5.00;;;17.00;99.90;;;;;;5121142;28;20421;-72
2022/10/29 08:52:07;;;;;;;11.07;6.13;;;17.00;99.90;;;;;;5118599;27;20478;-71
2022/10/29 08:54:37;;;;;;;13.07;5.13;;;17.10;99.90;;;;;;5116057;28;20417;-71
2022/10/29 08:57:12;;;;;;;11.10;4.93;;;17.20;99.90;;;;;;5115652;28;20484;-71
2022/10/29 08:59:44;;;;;;;10.90;5.43;;;17.40;99.90;;;;;;5116118;28;20445;-72
2022/10/29 09:02:17;;;;;;;8.10;5.27;;;17.50;99.90;;;;;;5116128;28;20402;-72
2022/10/29 09:04:43;;;;;;;18.90;5.47;;;17.70;99.90;;;;;;5115576;28;20447;-72
2022/10/29 09:07:08;;;;;;;11.10;4.70;;;17.90;99.90;;;;;;5115824;28;20800;-72
2022/10/29 09:09:52;;;;;;;15.13;6.13;;;18.10;99.90;;;;;;5115711;28;20185;-72
2022/10/29 09:12:44;;;;;;;11.80;4.63;;;18.30;99.90;;;;;;5116178;28;20218;-72
2022/10/29 09:15:38;;;;;;;12.73;5.00;;;18.70;99.90;;;;;;5115560;28;20387;-72
2022/10/29 09:18:19;;;;;;;10.13;4.57;;;19.30;99.90;;;;;;5072740;28;20463;-71
2022/10/29 09:20:53;;;;;;;8.17;4.50;;;19.80;99.90;;;;;;5095330;28;20399;-71
2022/10/29 09:23:29;;;;;;;12.73;4.97;;;20.10;99.90;;;;;;5095299;28;20767;-71
2022/10/29 09:26:10;;;;;;;7.43;5.17;;;20.10;99.90;;;;;;5100826;28;20471;-71
2022/10/29 09:29:03;;;;;;;9.27;4.90;;;20.20;99.90;;;;;;5114143;28;20453;-71
2022/10/29 09:31:45;;;;;;;11.97;5.57;;;20.10;99.90;;;;;;5083285;28;20422;-71
2022/10/29 09:34:42;;;;;;;14.70;5.07;;;20.00;99.90;;;;;;5115351;28;20406;-71
2022/10/29 09:37:19;;;;;;;7.73;4.00;;;20.10;99.90;;;;;;5111833;28;20546;-72
2022/10/29 09:39:46;;;;;;;13.13;4.93;;;20.50;99.90;;;;;;5115169;28;20803;-72
2022/10/29 09:42:36;;;;;;;4.93;3.33;;;20.50;99.90;;;;;;5115293;27;20405;-72
2022/10/29 09:45:08;;;;;;;22.93;6.33;;;20.50;99.90;;;;;;5116105;28;20403;-72
2022/10/29 09:48:04;;;;;;;12.07;3.33;;;20.40;99.90;;;;;;5117984;28;20908;-73
2022/10/29 09:50:45;;;;;;;7.20;4.20;;;20.40;99.90;;;;;;5118471;28;20469;-72
2022/10/29 09:53:10;;;;;;;9.33;4.30;;;20.40;99.90;;;;;;5117933;28;20911;-73
2022/10/29 09:55:45;;;;;;;6.00;4.60;;;20.30;99.90;;;;;;5117532;28;20390;-73
2022/10/29 09:58:20;;;;;;;7.43;4.50;;;20.80;99.90;;;;;;5118030;28;20258;-73
2022/10/29 10:00:45;;;;;;;10.97;4.90;;;21.20;99.90;;;;;;5115202;28;20398;-72
2022/10/29 10:03:17;;;;;;;11.87;5.33;;;21.40;99.90;;;;;;5114854;28;20399;-71
2022/10/29 10:05:58;;;;;;;10.20;5.53;;;21.60;99.90;;;;;;5114474;27;20263;-71
2022/10/29 10:08:23;;;;;;;13.50;5.50;;;21.80;99.90;;;;;;5115499;28;20418;-72
2022/10/29 10:10:57;;;;;;;8.40;5.30;;;21.60;99.90;;;;;;5117084;28;20411;-72
2022/10/29 10:13:27;;;;;;;7.23;5.03;;;21.50;99.90;;;;;;5117700;28;20239;-72
2022/10/29 10:16:04;;;;;;;10.30;4.87;;;21.20;99.90;;;;;;5117774;28;20406;-73
2022/10/29 10:18:30;;;;;;;8.57;5.27;;;20.90;99.90;;;;;;5115806;28;20968;-72
2022/10/29 10:21:10;;;;;;;7.70;4.33;;;20.60;99.90;;;;;;5114534;28;20406;-72
2022/10/29 10:23:53;;;;;;;12.30;5.73;;;20.50;99.90;;;;;;5114574;28;20255;-72
2022/10/29 10:26:38;;;;;;;9.60;4.40;;;20.40;99.90;;;;;;5114581;28;20916;-72
2022/10/29 10:29:17;;;;;;;9.93;5.07;;;20.40;99.90;;;;;;5114777;28;20435;-72
2022/10/29 10:32:08;;;;;;;11.47;5.23;;;20.50;99.90;;;;;;5116891;28;20398;-72
2022/10/29 10:34:33;;;;;;;9.43;4.80;;;20.50;99.90;;;;;;5116353;28;20398;-73
2022/10/29 10:37:30;;;;;;;9.23;5.87;;;20.40;99.90;;;;;;5116466;28;20443;-72
2022/10/29 10:40:18;;;;;;;6.20;4.40;;;20.40;99.90;;;;;;5115511;28;20200;-73
2022/10/29 10:42:46;;;;;;;12.63;4.60;;;20.30;99.90;;;;;;5116123;28;21048;-72
2022/10/29 10:45:25;;;;;;;6.70;4.97;;;20.30;99.90;;;;;;5114481;28;20426;-72
2022/10/29 10:47:56;;;;;;;10.20;5.00;;;20.30;99.90;;;;;;5115321;28;20518;-72
2022/10/29 10:50:28;;;;;;;10.20;5.60;;;20.30;99.90;;;;;;5114219;28;20547;-72
2022/10/29 10:52:57;;;;;;;11.53;4.23;;;20.30;99.90;;;;;;5114141;28;20725;-72
2022/10/29 10:55:37;;;;;;;14.10;3.77;;;20.30;99.90;;;;;;5113790;28;20903;-72
2022/10/29 10:58:26;;;;;;;19.53;5.53;;;20.30;99.90;;;;;;5112408;28;20458;-72
2022/10/29 11:01:23;;;;;;;8.03;4.97;;;20.40;99.90;;;;;;5113799;28;20423;-72
2022/10/29 11:04:09;;;;;;;6.73;3.87;;;20.50;99.90;;;;;;5094898;28;20919;-72
2022/10/29 11:06:39;;;;;;;14.13;4.27;;;20.60;99.90;;;;;;5113841;28;20434;-71
2022/10/29 11:09:19;;;;;;;8.13;4.47;;;20.90;99.90;;;;;;5113603;28;20426;-72
2022/10/29 11:11:54;;;;;;;8.57;4.30;;;21.00;99.90;;;;;;5113914;28;21058;-73
2022/10/29 11:14:27;;;;;;;6.50;4.57;;;21.30;99.90;;;;;;5112030;28;20410;-71
2022/10/29 11:16:55;;;;;;;10.03;4.40;;;21.80;99.90;;;;;;5113428;28;20456;-72
2022/10/29 11:19:46;;;;;;;9.60;4.47;;;22.20;99.90;;;;;;5113142;28;20648;-72
2022/10/29 11:22:25;;;;;;;8.30;5.10;;;22.40;99.90;;;;;;5113449;28;20452;-71
2022/10/29 11:25:01;;;;;;;7.97;4.43;;;23.10;99.90;;;;;;5112770;28;20425;-71
2022/10/29 11:27:46;;;;;;;9.70;5.30;;;23.60;99.90;;;;;;5112081;28;20438;-71
2022/10/29 11:30:16;;;;;;;6.20;3.80;;;24.20;99.90;;;;;;5113342;28;20441;-73
2022/10/29 11:33:04;;;;;;;8.10;5.60;;;24.70;99.90;;;;;;5115170;28;20391;-72
2022/10/29 11:35:50;;;;;;;6.53;3.47;;;24.60;99.90;;;;;;5114758;28;20402;-72
2022/10/29 11:38:35;;;;;;;8.00;4.50;;;24.40;99.90;;;;;;5114681;28;20452;-71
2022/10/29 11:41:33;;;;;;;9.30;4.73;;;24.30;99.90;;;;;;5092759;28;20956;-72
2022/10/29 11:43:59;;;;;;;9.63;5.17;;;23.90;99.90;;;;;;5092767;28;20407;-72
2022/10/29 11:47:17;;;;;;;11.53;4.43;;;23.90;99.90;;;;;;5092376;28;20816;-72
2022/10/29 11:49:57;;;;;;;11.30;4.03;;;24.40;99.90;;;;;;5077071;28;20223;-71
2022/10/29 11:52:36;;;;;;;10.07;4.90;;;25.30;99.90;;;;;;5112832;28;20410;-71
2022/10/29 11:55:26;;;;;;;10.07;4.27;;;25.40;99.90;;;;;;5112603;28;20390;-72
2022/10/29 11:57:59;;;;;;;7.13;5.10;;;25.40;99.90;;;;;;5112752;28;20442;-72
2022/10/29 12:00:26;;;;;;;13.73;5.40;;;25.20;99.90;;;;;;5112436;27;20939;-72
2022/10/29 12:03:14;;;;;;;11.43;3.97;;;24.70;99.90;;;;;;5112666;28;20410;-71
2022/10/29 12:05:45;;;;;;;12.13;4.77;;;24.50;99.90;;;;;;5112493;28;20399;-71
2022/10/29 12:08:17;;;;;;;13.90;4.17;;;24.40;99.90;;;;;;5112226;28;20410;-71
2022/10/29 12:10:53;;;;;;;10.00;4.67;;;24.50;99.90;;;;;;5111532;28;20430;-72
2022/10/29 12:13:26;;;;;;;20.47;4.70;;;24.70;99.90;;;;;;5114401;28;20437;-73
2022/10/29 12:16:12;;;;;;;7.70;5.00;;;24.80;99.90;;;;;;5113057;28;20725;-72
2022/10/29 12:18:51;;;;;;;9.63;4.13;;;24.80;99.90;;;;;;5112283;28;20502;-72
2022/10/29 12:21:38;;;;;;;8.10;4.90;;;25.20;99.90;;;;;;5111090;28;20487;-72
2022/10/29 12:24:28;;;;;;;12.87;4.83;;;25.10;99.90;;;;;;5112307;28;20422;-72
2022/10/29 12:27:13;;;;;;;9.13;4.73;;;25.20;99.90;;;;;;5112423;28;20431;-72
2022/10/29 12:29:57;;;;;;;6.53;4.30;;;25.00;99.90;;;;;;5110729;28;20438;-72
2022/10/29 12:32:32;;;;;;;7.27;4.90;;;25.00;99.90;;;;;;5112285;28;20417;-72
2022/10/29 12:35:05;;;;;;;6.20;4.13;;;25.00;99.90;;;;;;5112027;28;20747;-72
2022/10/29 12:37:41;;;;;;;4.73;3.77;;;24.70;99.90;;;;;;5112310;28;20509;-71
2022/10/29 12:40:24;;;;;;;9.23;4.20;;;24.50;99.90;;;;;;5112099;28;20453;-72
2022/10/29 12:42:50;;;;;;;9.70;6.10;;;24.20;99.90;;;;;;5113897;28;20429;-72
2022/10/29 12:45:18;;;;;;;10.57;4.60;;;24.10;99.90;;;;;;5113161;28;20407;-71
2022/10/29 12:48:07;;;;;;;8.30;3.77;;;24.20;99.90;;;;;;5112199;28;20458;-71
2022/10/29 12:50:56;;;;;;;6.83;4.03;;;24.50;99.90;;;;;;5091756;28;20427;-71
2022/10/29 12:53:24;;;;;;;7.73;3.90;;;24.70;99.90;;;;;;5091825;28;20404;-72
2022/10/29 12:55:51;;;;;;;13.93;4.77;;;24.50;99.90;;;;;;5091428;28;20468;-71
2022/10/29 12:58:48;;;;;;;7.27;4.50;;;24.20;99.90;;;;;;5093322;28;20459;-71
2022/10/29 13:01:27;;;;;;;11.07;4.40;;;24.40;99.90;;;;;;5112060;28;20614;-71
2022/10/29 13:03:53;;;;;;;7.57;3.53;;;25.20;99.90;;;;;;5110734;28;20403;-70
2022/10/29 13:06:40;;;;;;;5.23;3.50;;;25.30;99.90;;;;;;5111727;28;20401;-72
2022/10/29 13:09:35;;;;;;;8.30;4.10;;;25.20;99.90;;;;;;5111915;28;20423;-71